sensor_id;sensor_type;location;lat;lon;timestamp;P1;durP1;ratioP1;P2;durP2;ratioP2
26038;SDS011;13815;52.374;4.882;2023-07-20T00:00:25;0.00;;;0.00;;
26038;SDS011;13815;52.374;4.882;2023-07-20T00:02:50;0.00;;;0.00;;
26038;SDS011;13815;52.374;4.882;2023-07-20T00:05:16;0.00;;;0.00;;
26038;SDS011;13815;52.374;4.882;2023-07-20T00:07:46;0.00;;;0.00;;
26038;SDS011;13815;52.374;4.882;2023-07-20T00:10:11;2.45;;;0.20;;
26038;SDS011;13815;52.374;4.882;2023-07-20T00:12:37;0.00;;;0.00;;
26038;SDS011;13815;52.374;4.882;2023-07-20T00:15:02;0.00;;;0.00;;
26038;SDS011;13815;52.374;4.882;2023-07-20T00:17:28;0.00;;;0.00;;
26038;SDS011;13815;52.374;4.882;2023-07-20T00:19:53;0.65;;;0.10;;
26038;SDS011;13815;52.374;4.882;2023-07-20T00:22:19;0.00;;;0.00;;
26038;SDS011;13815;52.374;4.882;2023-07-20T00:24:44;2.92;;;0.30;;
26038;SDS011;13815;52.374;4.882;2023-07-20T00:27:09;0.00;;;0.00;;
26038;SDS011;13815;52.374;4.882;2023-07-20T00:29:35;0.00;;;0.00;;
26038;SDS011;13815;52.374;4.882;2023-07-20T00:32:00;0.00;;;0.00;;
26038;SDS011;13815;52.374;4.882;2023-07-20T00:34:25;0.00;;;0.00;;
26038;SDS011;13815;52.374;4.882;2023-07-20T00:36:51;0.00;;;0.00;;
26038;SDS011;13815;52.374;4.882;2023-07-20T00:39:16;0.00;;;0.00;;
26038;SDS011;13815;52.374;4.882;2023-07-20T00:41:42;0.00;;;0.00;;
26038;SDS011;13815;52.374;4.882;2023-07-20T00:44:07;1.77;;;0.25;;
26038;SDS011;13815;52.374;4.882;2023-07-20T00:46:32;0.00;;;0.00;;
26038;SDS011;13815;52.374;4.882;2023-07-20T00:48:58;0.00;;;0.00;;
26038;SDS011;13815;52.374;4.882;2023-07-20T00:51:24;4.93;;;0.40;;
26038;SDS011;13815;52.374;4.882;2023-07-20T00:53:50;0.00;;;0.00;;
26038;SDS011;13815;52.374;4.882;2023-07-20T00:56:16;0.00;;;0.00;;
26038;SDS011;13815;52.374;4.882;2023-07-20T00:58:41;0.00;;;0.00;;
26038;SDS011;13815;52.374;4.882;2023-07-20T01:01:07;0.00;;;0.00;;
26038;SDS011;13815;52.374;4.882;2023-07-20T01:03:32;0.00;;;0.00;;
26038;SDS011;13815;52.374;4.882;2023-07-20T01:06:14;3.40;;;0.40;;
26038;SDS011;13815;52.374;4.882;2023-07-20T01:13:54;0.30;;;0.30;;
26038;SDS011;13815;52.374;4.882;2023-07-20T01:16:20;6.28;;;1.25;;
26038;SDS011;13815;52.374;4.882;2023-07-20T01:18:45;0.00;;;0.00;;
26038;SDS011;13815;52.374;4.882;2023-07-20T01:21:13;2.78;;;0.20;;
26038;SDS011;13815;52.374;4.882;2023-07-20T01:29:43;0.00;;;0.00;;
26038;SDS011;13815;52.374;4.882;2023-07-20T01:32:33;0.00;;;0.00;;
26038;SDS011;13815;52.374;4.882;2023-07-20T01:34:59;0.63;;;0.10;;
26038;SDS011;13815;52.374;4.882;2023-07-20T01:37:26;0.00;;;0.00;;
26038;SDS011;13815;52.374;4.882;2023-07-20T01:39:54;1.98;;;0.20;;
26038;SDS011;13815;52.374;4.882;2023-07-20T01:42:21;0.00;;;0.00;;
26038;SDS011;13815;52.374;4.882;2023-07-20T01:44:50;2.00;;;0.25;;
26038;SDS011;13815;52.374;4.882;2023-07-20T01:47:16;2.10;;;0.20;;
26038;SDS011;13815;52.374;4.882;2023-07-20T01:49:41;0.00;;;0.00;;
26038;SDS011;13815;52.374;4.882;2023-07-20T01:52:09;0.00;;;0.00;;
26038;SDS011;13815;52.374;4.882;2023-07-20T01:54:34;1.10;;;0.10;;
26038;SDS011;13815;52.374;4.882;2023-07-20T01:56:59;0.00;;;0.00;;
26038;SDS011;13815;52.374;4.882;2023-07-20T01:59:25;0.00;;;0.00;;
26038;SDS011;13815;52.374;4.882;2023-07-20T02:01:50;0.00;;;0.00;;
26038;SDS011;13815;52.374;4.882;2023-07-20T02:04:16;0.00;;;0.00;;
26038;SDS011;13815;52.374;4.882;2023-07-20T02:06:44;0.00;;;0.00;;
26038;SDS011;13815;52.374;4.882;2023-07-20T02:09:09;0.00;;;0.00;;
26038;SDS011;13815;52.374;4.882;2023-07-20T02:11:35;0.00;;;0.00;;
26038;SDS011;13815;52.374;4.882;2023-07-20T02:14:00;0.00;;;0.00;;
26038;SDS011;13815;52.374;4.882;2023-07-20T02:16:25;0.05;;;0.00;;
26038;SDS011;13815;52.374;4.882;2023-07-20T02:18:52;2.28;;;0.20;;
26038;SDS011;13815;52.374;4.882;2023-07-20T02:21:17;1.85;;;0.30;;
26038;SDS011;13815;52.374;4.882;2023-07-20T02:23:43;1.73;;;0.20;;
26038;SDS011;13815;52.374;4.882;2023-07-20T02:26:08;1.90;;;0.20;;
26038;SDS011;13815;52.374;4.882;2023-07-20T02:28:33;0.00;;;0.00;;
26038;SDS011;13815;52.374;4.882;2023-07-20T02:30:59;1.48;;;0.20;;
26038;SDS011;13815;52.374;4.882;2023-07-20T02:33:25;1.83;;;0.30;;
26038;SDS011;13815;52.374;4.882;2023-07-20T02:35:51;0.00;;;0.00;;
26038;SDS011;13815;52.374;4.882;2023-07-20T02:38:17;1.33;;;0.20;;
26038;SDS011;13815;52.374;4.882;2023-07-20T02:40:42;0.00;;;0.00;;
26038;SDS011;13815;52.374;4.882;2023-07-20T02:43:07;0.00;;;0.00;;
26038;SDS011;13815;52.374;4.882;2023-07-20T02:45:34;0.70;;;0.08;;
26038;SDS011;13815;52.374;4.882;2023-07-20T02:48:00;1.98;;;0.20;;
26038;SDS011;13815;52.374;4.882;2023-07-20T02:50:26;0.00;;;0.00;;
26038;SDS011;13815;52.374;4.882;2023-07-20T02:52:51;0.20;;;0.00;;
26038;SDS011;13815;52.374;4.882;2023-07-20T02:55:17;2.17;;;0.20;;
26038;SDS011;13815;52.374;4.882;2023-07-20T02:57:44;1.88;;;0.30;;
26038;SDS011;13815;52.374;4.882;2023-07-20T03:00:09;0.00;;;0.00;;
26038;SDS011;13815;52.374;4.882;2023-07-20T03:02:36;0.00;;;0.00;;
26038;SDS011;13815;52.374;4.882;2023-07-20T03:05:02;0.98;;;0.10;;
26038;SDS011;13815;52.374;4.882;2023-07-20T03:07:30;3.85;;;0.63;;
26038;SDS011;13815;52.374;4.882;2023-07-20T03:09:56;0.00;;;0.00;;
26038;SDS011;13815;52.374;4.882;2023-07-20T03:12:21;0.00;;;0.00;;
26038;SDS011;13815;52.374;4.882;2023-07-20T03:14:47;3.30;;;0.45;;
26038;SDS011;13815;52.374;4.882;2023-07-20T03:17:12;0.00;;;0.00;;
26038;SDS011;13815;52.374;4.882;2023-07-20T03:19:37;1.38;;;0.20;;
26038;SDS011;13815;52.374;4.882;2023-07-20T03:22:03;0.15;;;0.00;;
26038;SDS011;13815;52.374;4.882;2023-07-20T03:24:28;0.00;;;0.00;;
26038;SDS011;13815;52.374;4.882;2023-07-20T03:26:54;0.00;;;0.00;;
26038;SDS011;13815;52.374;4.882;2023-07-20T03:29:19;2.25;;;0.20;;
26038;SDS011;13815;52.374;4.882;2023-07-20T03:31:44;0.00;;;0.00;;
26038;SDS011;13815;52.374;4.882;2023-07-20T03:34:10;2.22;;;0.20;;
26038;SDS011;13815;52.374;4.882;2023-07-20T03:36:35;0.00;;;0.00;;
26038;SDS011;13815;52.374;4.882;2023-07-20T03:39:00;0.10;;;0.00;;
26038;SDS011;13815;52.374;4.882;2023-07-20T03:41:26;2.63;;;0.30;;
26038;SDS011;13815;52.374;4.882;2023-07-20T03:43:51;0.00;;;0.00;;
26038;SDS011;13815;52.374;4.882;2023-07-20T03:46:17;0.00;;;0.00;;
26038;SDS011;13815;52.374;4.882;2023-07-20T03:48:42;0.68;;;0.10;;
26038;SDS011;13815;52.374;4.882;2023-07-20T03:51:07;0.00;;;0.00;;
26038;SDS011;13815;52.374;4.882;2023-07-20T03:53:33;2.25;;;0.20;;
26038;SDS011;13815;52.374;4.882;2023-07-20T03:55:58;0.00;;;0.00;;
26038;SDS011;13815;52.374;4.882;2023-07-20T03:58:24;0.00;;;0.00;;
26038;SDS011;13815;52.374;4.882;2023-07-20T04:00:51;0.25;;;0.05;;
26038;SDS011;13815;52.374;4.882;2023-07-20T04:03:17;1.33;;;0.20;;
26038;SDS011;13815;52.374;4.882;2023-07-20T04:05:43;1.42;;;0.15;;
26038;SDS011;13815;52.374;4.882;2023-07-20T04:08:09;0.00;;;0.00;;
26038;SDS011;13815;52.374;4.882;2023-07-20T04:10:36;1.55;;;0.20;;
26038;SDS011;13815;52.374;4.882;2023-07-20T04:13:01;1.65;;;0.20;;
26038;SDS011;13815;52.374;4.882;2023-07-20T04:15:26;0.20;;;0.00;;
26038;SDS011;13815;52.374;4.882;2023-07-20T04:17:52;0.00;;;0.00;;
26038;SDS011;13815;52.374;4.882;2023-07-20T04:20:17;1.10;;;0.20;;
26038;SDS011;13815;52.374;4.882;2023-07-20T04:22:43;2.70;;;0.32;;
26038;SDS011;13815;52.374;4.882;2023-07-20T04:25:09;0.00;;;0.00;;
26038;SDS011;13815;52.374;4.882;2023-07-20T04:27:35;1.27;;;0.20;;
26038;SDS011;13815;52.374;4.882;2023-07-20T04:30:01;3.83;;;0.52;;
26038;SDS011;13815;52.374;4.882;2023-07-20T04:32:27;0.00;;;0.00;;
26038;SDS011;13815;52.374;4.882;2023-07-20T04:34:52;0.00;;;0.00;;
26038;SDS011;13815;52.374;4.882;2023-07-20T04:37:18;5.82;;;0.47;;
26038;SDS011;13815;52.374;4.882;2023-07-20T04:39:43;1.88;;;0.20;;
26038;SDS011;13815;52.374;4.882;2023-07-20T04:42:08;2.42;;;0.20;;
26038;SDS011;13815;52.374;4.882;2023-07-20T04:44:34;5.28;;;0.52;;
26038;SDS011;13815;52.374;4.882;2023-07-20T04:46:59;0.00;;;0.00;;
26038;SDS011;13815;52.374;4.882;2023-07-20T04:49:25;0.00;;;0.00;;
26038;SDS011;13815;52.374;4.882;2023-07-20T04:51:50;0.00;;;0.00;;
26038;SDS011;13815;52.374;4.882;2023-07-20T04:54:16;0.00;;;0.00;;
26038;SDS011;13815;52.374;4.882;2023-07-20T04:56:42;2.10;;;0.22;;
26038;SDS011;13815;52.374;4.882;2023-07-20T04:59:10;0.00;;;0.00;;
26038;SDS011;13815;52.374;4.882;2023-07-20T05:01:36;0.00;;;0.00;;
26038;SDS011;13815;52.374;4.882;2023-07-20T05:04:01;5.00;;;0.43;;
26038;SDS011;13815;52.374;4.882;2023-07-20T05:06:27;0.00;;;0.00;;
26038;SDS011;13815;52.374;4.882;2023-07-20T05:08:52;5.05;;;0.43;;
26038;SDS011;13815;52.374;4.882;2023-07-20T05:11:18;5.28;;;0.52;;
26038;SDS011;13815;52.374;4.882;2023-07-20T05:13:43;1.55;;;0.20;;
26038;SDS011;13815;52.374;4.882;2023-07-20T05:16:08;2.47;;;0.22;;
26038;SDS011;13815;52.374;4.882;2023-07-20T05:18:34;2.72;;;0.25;;
26038;SDS011;13815;52.374;4.882;2023-07-20T05:20:59;0.00;;;0.00;;
26038;SDS011;13815;52.374;4.882;2023-07-20T05:23:25;2.60;;;0.22;;
26038;SDS011;13815;52.374;4.882;2023-07-20T05:26:05;4.80;;;0.47;;
26038;SDS011;13815;52.374;4.882;2023-07-20T05:28:34;2.33;;;0.20;;
26038;SDS011;13815;52.374;4.882;2023-07-20T05:31:01;4.95;;;0.52;;
26038;SDS011;13815;52.374;4.882;2023-07-20T05:33:28;0.00;;;0.00;;
26038;SDS011;13815;52.374;4.882;2023-07-20T05:35:55;0.00;;;0.00;;
26038;SDS011;13815;52.374;4.882;2023-07-20T05:38:20;0.00;;;0.00;;
26038;SDS011;13815;52.374;4.882;2023-07-20T05:40:46;0.85;;;0.15;;
26038;SDS011;13815;52.374;4.882;2023-07-20T05:43:12;1.85;;;0.22;;
26038;SDS011;13815;52.374;4.882;2023-07-20T05:45:37;0.00;;;0.00;;
26038;SDS011;13815;52.374;4.882;2023-07-20T05:48:06;0.00;;;0.00;;
26038;SDS011;13815;52.374;4.882;2023-07-20T05:50:34;0.98;;;0.20;;
26038;SDS011;13815;52.374;4.882;2023-07-20T05:53:00;0.00;;;0.00;;
26038;SDS011;13815;52.374;4.882;2023-07-20T05:55:28;1.15;;;0.32;;
26038;SDS011;13815;52.374;4.882;2023-07-20T05:57:53;1.85;;;0.38;;
26038;SDS011;13815;52.374;4.882;2023-07-20T06:00:20;0.10;;;0.10;;
26038;SDS011;13815;52.374;4.882;2023-07-20T06:02:51;2.13;;;0.40;;
26038;SDS011;13815;52.374;4.882;2023-07-20T06:05:19;0.10;;;0.10;;
26038;SDS011;13815;52.374;4.882;2023-07-20T06:07:46;1.88;;;0.40;;
26038;SDS011;13815;52.374;4.882;2023-07-20T06:10:11;3.72;;;0.68;;
26038;SDS011;13815;52.374;4.882;2023-07-20T06:12:37;0.20;;;0.20;;
26038;SDS011;13815;52.374;4.882;2023-07-20T06:15:03;1.95;;;0.50;;
26038;SDS011;13815;52.374;4.882;2023-07-20T06:17:29;2.17;;;0.50;;
26038;SDS011;13815;52.374;4.882;2023-07-20T06:19:54;0.30;;;0.30;;
26038;SDS011;13815;52.374;4.882;2023-07-20T06:22:20;2.13;;;0.82;;
26038;SDS011;13815;52.374;4.882;2023-07-20T06:24:45;1.65;;;0.90;;
26038;SDS011;13815;52.374;4.882;2023-07-20T06:27:10;0.70;;;0.70;;
26038;SDS011;13815;52.374;4.882;2023-07-20T06:29:37;1.55;;;1.00;;
26038;SDS011;13815;52.374;4.882;2023-07-20T06:32:02;0.90;;;0.90;;
26038;SDS011;13815;52.374;4.882;2023-07-20T06:34:28;0.95;;;0.95;;
26038;SDS011;13815;52.374;4.882;2023-07-20T06:36:54;1.30;;;1.30;;
26038;SDS011;13815;52.374;4.882;2023-07-20T06:39:19;1.40;;;1.40;;
26038;SDS011;13815;52.374;4.882;2023-07-20T06:41:45;1.70;;;1.63;;
26038;SDS011;13815;52.374;4.882;2023-07-20T06:44:10;3.80;;;2.10;;
26038;SDS011;13815;52.374;4.882;2023-07-20T06:46:36;1.40;;;1.40;;
26038;SDS011;13815;52.374;4.882;2023-07-20T06:49:05;1.30;;;1.30;;
26038;SDS011;13815;52.374;4.882;2023-07-20T06:51:31;1.70;;;1.60;;
26038;SDS011;13815;52.374;4.882;2023-07-20T06:53:57;1.60;;;1.60;;
26038;SDS011;13815;52.374;4.882;2023-07-20T06:56:22;2.67;;;2.25;;
26038;SDS011;13815;52.374;4.882;2023-07-20T06:58:47;4.63;;;2.78;;
26038;SDS011;13815;52.374;4.882;2023-07-20T07:01:13;2.30;;;2.30;;
26038;SDS011;13815;52.374;4.882;2023-07-20T07:03:39;3.60;;;3.38;;
26038;SDS011;13815;52.374;4.882;2023-07-20T07:06:05;2.80;;;2.80;;
26038;SDS011;13815;52.374;4.882;2023-07-20T07:08:30;2.38;;;2.38;;
26038;SDS011;13815;52.374;4.882;2023-07-20T07:10:58;3.05;;;2.80;;
26038;SDS011;13815;52.374;4.882;2023-07-20T07:13:23;3.20;;;3.00;;
26038;SDS011;13815;52.374;4.882;2023-07-20T07:15:49;2.50;;;2.50;;
26038;SDS011;13815;52.374;4.882;2023-07-20T07:18:15;4.45;;;4.20;;
26038;SDS011;13815;52.374;4.882;2023-07-20T07:20:40;3.90;;;3.80;;
26038;SDS011;13815;52.374;4.882;2023-07-20T07:23:06;4.78;;;4.53;;
26038;SDS011;13815;52.374;4.882;2023-07-20T07:25:31;5.97;;;5.47;;
26038;SDS011;13815;52.374;4.882;2023-07-20T07:27:57;5.88;;;5.78;;
26038;SDS011;13815;52.374;4.882;2023-07-20T07:30:22;7.18;;;6.97;;
26038;SDS011;13815;52.374;4.882;2023-07-20T07:32:49;8.85;;;8.35;;
26038;SDS011;13815;52.374;4.882;2023-07-20T07:35:14;9.82;;;9.52;;
26038;SDS011;13815;52.374;4.882;2023-07-20T07:37:40;11.20;;;10.80;;
26038;SDS011;13815;52.374;4.882;2023-07-20T07:40:05;12.07;;;11.48;;
26038;SDS011;13815;52.374;4.882;2023-07-20T07:42:32;11.60;;;11.20;;
26038;SDS011;13815;52.374;4.882;2023-07-20T07:44:58;13.13;;;12.32;;
26038;SDS011;13815;52.374;4.882;2023-07-20T07:47:23;14.32;;;13.63;;
26038;SDS011;13815;52.374;4.882;2023-07-20T07:49:49;15.13;;;14.43;;
26038;SDS011;13815;52.374;4.882;2023-07-20T07:52:15;16.25;;;15.10;;
26038;SDS011;13815;52.374;4.882;2023-07-20T07:54:40;15.85;;;15.05;;
26038;SDS011;13815;52.374;4.882;2023-07-20T07:57:06;16.98;;;15.98;;
26038;SDS011;13815;52.374;4.882;2023-07-20T07:59:31;20.00;;;18.27;;
26038;SDS011;13815;52.374;4.882;2023-07-20T08:02:01;19.05;;;17.75;;
26038;SDS011;13815;52.374;4.882;2023-07-20T08:04:27;18.70;;;17.33;;
26038;SDS011;13815;52.374;4.882;2023-07-20T08:06:52;20.00;;;18.20;;
26038;SDS011;13815;52.374;4.882;2023-07-20T08:09:18;19.15;;;17.75;;
26038;SDS011;13815;52.374;4.882;2023-07-20T08:11:43;19.30;;;17.85;;
26038;SDS011;13815;52.374;4.882;2023-07-20T08:14:09;20.75;;;18.95;;
26038;SDS011;13815;52.374;4.882;2023-07-20T08:16:34;19.88;;;18.27;;
26038;SDS011;13815;52.374;4.882;2023-07-20T08:18:59;20.90;;;19.00;;
26038;SDS011;13815;52.374;4.882;2023-07-20T08:21:25;21.30;;;19.17;;
26038;SDS011;13815;52.374;4.882;2023-07-20T08:23:50;21.38;;;19.48;;
26038;SDS011;13815;52.374;4.882;2023-07-20T08:26:17;20.85;;;19.05;;
26038;SDS011;13815;52.374;4.882;2023-07-20T08:28:43;21.40;;;19.40;;
26038;SDS011;13815;52.374;4.882;2023-07-20T08:31:09;19.92;;;18.35;;
26038;SDS011;13815;52.374;4.882;2023-07-20T08:33:35;20.33;;;18.65;;
26038;SDS011;13815;52.374;4.882;2023-07-20T08:36:01;21.35;;;19.55;;
26038;SDS011;13815;52.374;4.882;2023-07-20T08:38:28;22.30;;;20.25;;
26038;SDS011;13815;52.374;4.882;2023-07-20T08:40:54;23.08;;;20.80;;
26038;SDS011;13815;52.374;4.882;2023-07-20T08:43:20;24.95;;;22.45;;
26038;SDS011;13815;52.374;4.882;2023-07-20T08:45:48;25.25;;;22.55;;
26038;SDS011;13815;52.374;4.882;2023-07-20T08:48:15;23.55;;;21.02;;
26038;SDS011;13815;52.374;4.882;2023-07-20T08:50:42;21.38;;;19.38;;
26038;SDS011;13815;52.374;4.882;2023-07-20T08:53:08;21.60;;;19.40;;
26038;SDS011;13815;52.374;4.882;2023-07-20T08:55:33;21.73;;;19.38;;
26038;SDS011;13815;52.374;4.882;2023-07-20T08:57:59;20.35;;;18.45;;
26038;SDS011;13815;52.374;4.882;2023-07-20T09:00:26;21.70;;;19.35;;
26038;SDS011;13815;52.374;4.882;2023-07-20T09:02:55;21.83;;;19.58;;
26038;SDS011;13815;52.374;4.882;2023-07-20T09:05:22;24.27;;;20.85;;
26038;SDS011;13815;52.374;4.882;2023-07-20T09:07:48;28.23;;;21.00;;
26038;SDS011;13815;52.374;4.882;2023-07-20T09:10:14;23.83;;;20.58;;
26038;SDS011;13815;52.374;4.882;2023-07-20T09:12:40;27.70;;;21.20;;
26038;SDS011;13815;52.374;4.882;2023-07-20T09:15:07;28.33;;;23.33;;
26038;SDS011;13815;52.374;4.882;2023-07-20T09:17:33;30.65;;;23.85;;
26038;SDS011;13815;52.374;4.882;2023-07-20T09:20:02;32.33;;;23.58;;
26038;SDS011;13815;52.374;4.882;2023-07-20T09:22:33;30.45;;;25.00;;
26038;SDS011;13815;52.374;4.882;2023-07-20T09:24:59;29.92;;;24.70;;
26038;SDS011;13815;52.374;4.882;2023-07-20T09:27:59;35.88;;;25.20;;
26038;SDS011;13815;52.374;4.882;2023-07-20T09:30:16;30.00;;;24.02;;
26038;SDS011;13815;52.374;4.882;2023-07-20T09:32:43;34.92;;;25.17;;
26038;SDS011;13815;52.374;4.882;2023-07-20T09:35:13;32.05;;;26.13;;
26038;SDS011;13815;52.374;4.882;2023-07-20T09:37:53;33.50;;;26.90;;
26038;SDS011;13815;52.374;4.882;2023-07-20T09:40:26;33.38;;;26.27;;
26038;SDS011;13815;52.374;4.882;2023-07-20T09:42:52;36.00;;;27.75;;
26038;SDS011;13815;52.374;4.882;2023-07-20T09:45:27;31.85;;;25.27;;
26038;SDS011;13815;52.374;4.882;2023-07-20T09:48:13;34.72;;;25.52;;
26038;SDS011;13815;52.374;4.882;2023-07-20T09:50:39;32.47;;;25.50;;
26038;SDS011;13815;52.374;4.882;2023-07-20T09:53:07;34.08;;;26.73;;
26038;SDS011;13815;52.374;4.882;2023-07-20T09:55:35;31.42;;;25.40;;
26038;SDS011;13815;52.374;4.882;2023-07-20T09:58:00;31.63;;;24.45;;
26038;SDS011;13815;52.374;4.882;2023-07-20T10:00:26;34.22;;;27.90;;
26038;SDS011;13815;52.374;4.882;2023-07-20T10:02:52;31.35;;;26.25;;
26038;SDS011;13815;52.374;4.882;2023-07-20T10:05:33;32.17;;;26.88;;
26038;SDS011;13815;52.374;4.882;2023-07-20T10:08:02;31.65;;;26.70;;
26038;SDS011;13815;52.374;4.882;2023-07-20T10:10:29;31.38;;;26.48;;
26038;SDS011;13815;52.374;4.882;2023-07-20T10:12:56;37.20;;;26.63;;
26038;SDS011;13815;52.374;4.882;2023-07-20T10:15:39;33.45;;;26.60;;
26038;SDS011;13815;52.374;4.882;2023-07-20T10:18:12;39.75;;;28.30;;
26038;SDS011;13815;52.374;4.882;2023-07-20T10:20:42;36.90;;;27.50;;
26038;SDS011;13815;52.374;4.882;2023-07-20T10:23:09;36.65;;;28.05;;
26038;SDS011;13815;52.374;4.882;2023-07-20T10:25:35;36.65;;;29.13;;
26038;SDS011;13815;52.374;4.882;2023-07-20T10:28:03;38.35;;;30.30;;
26038;SDS011;13815;52.374;4.882;2023-07-20T10:30:35;44.20;;;30.55;;
26038;SDS011;13815;52.374;4.882;2023-07-20T10:33:02;39.08;;;30.10;;
26038;SDS011;13815;52.374;4.882;2023-07-20T10:35:28;38.03;;;28.98;;
26038;SDS011;13815;52.374;4.882;2023-07-20T10:37:54;40.28;;;29.13;;
26038;SDS011;13815;52.374;4.882;2023-07-20T10:40:25;39.63;;;30.63;;
26038;SDS011;13815;52.374;4.882;2023-07-20T10:42:56;43.33;;;28.60;;
26038;SDS011;13815;52.374;4.882;2023-07-20T10:45:32;36.72;;;27.60;;
26038;SDS011;13815;52.374;4.882;2023-07-20T10:48:18;36.78;;;28.60;;
26038;SDS011;13815;52.374;4.882;2023-07-20T10:50:45;37.35;;;27.92;;
26038;SDS011;13815;52.374;4.882;2023-07-20T10:53:12;41.22;;;29.50;;
26038;SDS011;13815;52.374;4.882;2023-07-20T10:55:39;37.10;;;28.45;;
26038;SDS011;13815;52.374;4.882;2023-07-20T10:58:06;39.22;;;28.88;;
26038;SDS011;13815;52.374;4.882;2023-07-20T11:00:35;41.20;;;29.00;;
26038;SDS011;13815;52.374;4.882;2023-07-20T11:03:01;43.80;;;29.52;;
26038;SDS011;13815;52.374;4.882;2023-07-20T11:05:34;44.83;;;31.10;;
26038;SDS011;13815;52.374;4.882;2023-07-20T11:08:04;40.55;;;30.45;;
26038;SDS011;13815;52.374;4.882;2023-07-20T11:10:34;41.10;;;29.95;;
26038;SDS011;13815;52.374;4.882;2023-07-20T11:16:01;44.10;;;30.30;;
26038;SDS011;13815;52.374;4.882;2023-07-20T11:18:32;41.97;;;29.75;;
26038;SDS011;13815;52.374;4.882;2023-07-20T11:20:58;42.33;;;31.17;;
26038;SDS011;13815;52.374;4.882;2023-07-20T11:26:43;39.47;;;27.40;;
26038;SDS011;13815;52.374;4.882;2023-07-20T11:29:13;39.65;;;27.70;;
26038;SDS011;13815;52.374;4.882;2023-07-20T11:31:39;44.22;;;28.27;;
26038;SDS011;13815;52.374;4.882;2023-07-20T11:34:06;41.67;;;27.77;;
26038;SDS011;13815;52.374;4.882;2023-07-20T11:36:33;50.85;;;28.88;;
26038;SDS011;13815;52.374;4.882;2023-07-20T11:38:58;42.30;;;27.63;;
26038;SDS011;13815;52.374;4.882;2023-07-20T11:41:24;42.67;;;27.25;;
26038;SDS011;13815;52.374;4.882;2023-07-20T11:43:51;46.80;;;31.52;;
26038;SDS011;13815;52.374;4.882;2023-07-20T11:46:19;43.63;;;28.63;;
26038;SDS011;13815;52.374;4.882;2023-07-20T11:48:45;44.05;;;28.75;;
26038;SDS011;13815;52.374;4.882;2023-07-20T11:51:16;44.38;;;28.92;;
26038;SDS011;13815;52.374;4.882;2023-07-20T11:53:43;41.80;;;28.30;;
26038;SDS011;13815;52.374;4.882;2023-07-20T11:56:09;50.67;;;30.95;;
26038;SDS011;13815;52.374;4.882;2023-07-20T11:58:35;47.05;;;29.58;;
26038;SDS011;13815;52.374;4.882;2023-07-20T12:01:01;41.65;;;28.15;;
26038;SDS011;13815;52.374;4.882;2023-07-20T12:03:27;55.17;;;29.77;;
26038;SDS011;13815;52.374;4.882;2023-07-20T12:05:53;55.22;;;32.13;;
26038;SDS011;13815;52.374;4.882;2023-07-20T12:08:18;47.65;;;31.48;;
26038;SDS011;13815;52.374;4.882;2023-07-20T12:10:43;56.15;;;30.55;;
26038;SDS011;13815;52.374;4.882;2023-07-20T12:13:09;46.85;;;30.02;;
26038;SDS011;13815;52.374;4.882;2023-07-20T12:15:36;47.17;;;30.38;;
26038;SDS011;13815;52.374;4.882;2023-07-20T12:18:02;53.03;;;35.28;;
26038;SDS011;13815;52.374;4.882;2023-07-20T12:20:29;46.53;;;32.72;;
26038;SDS011;13815;52.374;4.882;2023-07-20T12:22:56;56.05;;;31.65;;
26038;SDS011;13815;52.374;4.882;2023-07-20T12:25:38;51.45;;;32.28;;
26038;SDS011;13815;52.374;4.882;2023-07-20T12:28:07;47.65;;;32.65;;
26038;SDS011;13815;52.374;4.882;2023-07-20T12:30:34;50.78;;;33.17;;
26038;SDS011;13815;52.374;4.882;2023-07-20T12:32:59;49.42;;;34.67;;
26038;SDS011;13815;52.374;4.882;2023-07-20T12:35:25;56.13;;;35.25;;
26038;SDS011;13815;52.374;4.882;2023-07-20T12:37:50;61.72;;;33.75;;
26038;SDS011;13815;52.374;4.882;2023-07-20T12:40:16;63.05;;;33.97;;
26038;SDS011;13815;52.374;4.882;2023-07-20T12:42:42;61.38;;;31.70;;
26038;SDS011;13815;52.374;4.882;2023-07-20T12:45:07;59.85;;;32.53;;
26038;SDS011;13815;52.374;4.882;2023-07-20T12:47:33;53.38;;;31.83;;
26038;SDS011;13815;52.374;4.882;2023-07-20T12:49:59;58.40;;;32.78;;
26038;SDS011;13815;52.374;4.882;2023-07-20T12:52:24;69.25;;;34.65;;
26038;SDS011;13815;52.374;4.882;2023-07-20T12:54:50;49.47;;;30.55;;
26038;SDS011;13815;52.374;4.882;2023-07-20T12:57:16;60.42;;;34.90;;
26038;SDS011;13815;52.374;4.882;2023-07-20T12:59:41;68.82;;;32.70;;
26038;SDS011;13815;52.374;4.882;2023-07-20T13:02:07;54.40;;;31.58;;
26038;SDS011;13815;52.374;4.882;2023-07-20T13:04:32;50.53;;;31.77;;
26038;SDS011;13815;52.374;4.882;2023-07-20T13:06:58;54.45;;;33.38;;
26038;SDS011;13815;52.374;4.882;2023-07-20T13:09:24;61.58;;;33.00;;
26038;SDS011;13815;52.374;4.882;2023-07-20T13:11:50;63.88;;;35.28;;
26038;SDS011;13815;52.374;4.882;2023-07-20T13:14:17;63.72;;;34.42;;
26038;SDS011;13815;52.374;4.882;2023-07-20T13:16:42;79.20;;;35.05;;
26038;SDS011;13815;52.374;4.882;2023-07-20T13:19:08;63.97;;;32.33;;
26038;SDS011;13815;52.374;4.882;2023-07-20T13:21:33;58.35;;;32.92;;
26038;SDS011;13815;52.374;4.882;2023-07-20T13:23:59;70.90;;;32.42;;
26038;SDS011;13815;52.374;4.882;2023-07-20T13:26:24;71.88;;;33.97;;
26038;SDS011;13815;52.374;4.882;2023-07-20T13:28:50;57.97;;;34.15;;
26038;SDS011;13815;52.374;4.882;2023-07-20T13:31:15;69.60;;;33.33;;
26038;SDS011;13815;52.374;4.882;2023-07-20T13:33:42;54.83;;;32.55;;
26038;SDS011;13815;52.374;4.882;2023-07-20T13:36:09;54.47;;;33.03;;
26038;SDS011;13815;52.374;4.882;2023-07-20T13:38:35;61.83;;;32.95;;
26038;SDS011;13815;52.374;4.882;2023-07-20T13:41:01;56.88;;;33.58;;
26038;SDS011;13815;52.374;4.882;2023-07-20T13:43:26;64.32;;;33.72;;
26038;SDS011;13815;52.374;4.882;2023-07-20T13:45:52;58.10;;;32.53;;
26038;SDS011;13815;52.374;4.882;2023-07-20T13:48:17;61.63;;;33.47;;
26038;SDS011;13815;52.374;4.882;2023-07-20T13:50:45;63.38;;;32.38;;
26038;SDS011;13815;52.374;4.882;2023-07-20T13:53:11;57.25;;;33.10;;
26038;SDS011;13815;52.374;4.882;2023-07-20T13:55:36;54.08;;;31.20;;
26038;SDS011;13815;52.374;4.882;2023-07-20T13:58:03;54.42;;;32.92;;
26038;SDS011;13815;52.374;4.882;2023-07-20T14:00:31;56.25;;;33.28;;
26038;SDS011;13815;52.374;4.882;2023-07-20T14:02:58;61.47;;;36.72;;
26038;SDS011;13815;52.374;4.882;2023-07-20T14:05:24;62.97;;;36.70;;
26038;SDS011;13815;52.374;4.882;2023-07-20T14:07:50;61.53;;;37.58;;
26038;SDS011;13815;52.374;4.882;2023-07-20T14:10:16;55.55;;;34.60;;
26038;SDS011;13815;52.374;4.882;2023-07-20T14:12:41;61.30;;;36.95;;
26038;SDS011;13815;52.374;4.882;2023-07-20T14:15:07;53.90;;;34.05;;
26038;SDS011;13815;52.374;4.882;2023-07-20T14:17:32;59.20;;;37.58;;
26038;SDS011;13815;52.374;4.882;2023-07-20T14:19:58;58.22;;;36.38;;
26038;SDS011;13815;52.374;4.882;2023-07-20T14:22:23;54.58;;;34.65;;
26038;SDS011;13815;52.374;4.882;2023-07-20T14:24:49;75.00;;;39.67;;
26038;SDS011;13815;52.374;4.882;2023-07-20T14:27:14;65.88;;;37.35;;
26038;SDS011;13815;52.374;4.882;2023-07-20T14:29:40;58.03;;;35.22;;
26038;SDS011;13815;52.374;4.882;2023-07-20T14:32:05;70.13;;;38.13;;
26038;SDS011;13815;52.374;4.882;2023-07-20T14:34:32;61.80;;;35.92;;
26038;SDS011;13815;52.374;4.882;2023-07-20T14:36:59;58.13;;;35.35;;
26038;SDS011;13815;52.374;4.882;2023-07-20T14:39:24;66.28;;;36.75;;
26038;SDS011;13815;52.374;4.882;2023-07-20T14:41:50;56.53;;;35.08;;
26038;SDS011;13815;52.374;4.882;2023-07-20T14:44:18;59.40;;;36.35;;
26038;SDS011;13815;52.374;4.882;2023-07-20T14:46:45;62.58;;;35.22;;
26038;SDS011;13815;52.374;4.882;2023-07-20T14:49:11;59.55;;;37.10;;